Time;durP1;ratioP1;P1;durP2;ratioP2;P2;SDS_P1;SDS_P2;PMS_P1;PMS_P2;Temp;Humidity;BMP_temperature;BMP_pressure;BME280_temperature;BME280_humidity;BME280_pressure;Samples;Min_cycle;Max_cycle;Signal;HPM_P1;HPM_P2
2023/08/03 00:00:56;;;;;;;2.80;1.43;;;;;;;19.81;90.26;96771.47;4154620;28;20632;-81
2023/08/03 00:02:58;;;;;;;3.23;1.27;;;;;;;19.78;90.04;96763.91;4138487;28;21167;-82
2023/08/03 00:05:02;;;;;;;2.50;1.40;;;;;;;19.73;90.77;96763.66;4153461;28;20677;-83
2023/08/03 00:07:07;;;;;;;3.30;1.47;;;;;;;19.69;89.50;96765.06;4150160;28;20637;-81
2023/08/03 00:09:10;;;;;;;7.80;1.67;;;;;;;19.66;89.50;96767.28;4153414;28;20641;-81
2023/08/03 00:11:14;;;;;;;5.33;2.60;;;;;;;19.61;89.98;96762.56;4134161;28;20654;-79
2023/08/03 00:13:17;;;;;;;4.27;2.47;;;;;;;19.60;89.97;96771.50;4150837;28;20639;-82
2023/08/03 00:15:20;;;;;;;2.40;1.50;;;;;;;19.61;89.19;96767.84;4138693;28;21092;-82
2023/08/03 00:17:23;;;;;;;3.40;1.20;;;;;;;19.59;88.06;96775.19;4137475;28;20624;-82
2023/08/03 00:19:26;;;;;;;6.37;2.07;;;;;;;19.54;88.12;96766.16;4152455;28;20640;-83
2023/08/03 00:21:29;;;;;;;5.03;2.20;;;;;;;19.49;88.45;96772.03;4152646;28;20659;-82
2023/08/03 00:23:34;;;;;;;4.30;1.20;;;;;;;19.49;89.02;96771.22;4136850;28;20638;-83
2023/08/03 00:25:37;;;;;;;2.00;1.10;;;;;;;19.44;88.69;96763.88;4150232;28;20664;-82
2023/08/03 00:27:40;;;;;;;5.50;1.37;;;;;;;19.44;89.01;96749.84;4136923;28;21287;-83
2023/08/03 00:29:43;;;;;;;2.60;1.47;;;;;;;19.42;87.01;96757.13;4154013;28;20675;-81
2023/08/03 00:31:46;;;;;;;3.47;1.20;;;;;;;19.43;86.89;96758.75;4115088;28;20625;-82
2023/08/03 00:33:50;;;;;;;2.90;1.10;;;;;;;19.38;86.65;96753.25;4116107;28;20653;-82
2023/08/03 00:35:53;;;;;;;5.77;1.80;;;;;;;19.37;86.70;96755.03;4133120;28;21248;-82
2023/08/03 00:37:56;;;;;;;4.47;1.30;;;;;;;19.38;86.71;96755.88;4129298;28;20646;-82
2023/08/03 00:40:01;;;;;;;5.17;1.50;;;;;;;19.39;86.47;96752.22;4133451;28;20645;-82
2023/08/03 00:42:05;;;;;;;5.37;1.30;;;;;;;19.40;85.91;96756.50;4149549;28;20631;-81
2023/08/03 00:44:08;;;;;;;4.27;1.53;;;;;;;19.38;85.57;96751.41;4122955;28;20817;-83
2023/08/03 00:46:11;;;;;;;3.67;1.60;;;;;;;19.40;85.56;96757.31;4148238;28;21366;-82
2023/08/03 00:48:14;;;;;;;3.60;1.10;;;;;;;19.40;85.96;96752.03;4150822;28;20719;-83
2023/08/03 00:50:19;;;;;;;2.83;1.37;;;;;;;19.40;85.48;96754.66;4120343;28;20728;-80
2023/08/03 00:52:23;;;;;;;6.03;1.77;;;;;;;19.40;85.79;96764.44;4135164;28;20691;-81
2023/08/03 00:54:25;;;;;;;5.80;1.30;;;;;;;19.36;85.63;96762.38;4156588;28;20638;-81
2023/08/03 00:56:30;;;;;;;5.20;1.60;;;;;;;19.33;84.55;96757.47;4125966;28;20701;-82
2023/08/03 00:58:33;;;;;;;3.10;1.27;;;;;;;19.30;85.20;96763.94;4136037;28;20946;-82
2023/08/03 01:00:36;;;;;;;6.63;1.63;;;;;;;19.30;84.67;96755.19;4135676;28;20636;-81
2023/08/03 01:02:39;;;;;;;3.67;1.20;;;;;;;19.24;85.51;96754.13;4154432;28;20635;-81
2023/08/03 01:04:43;;;;;;;3.80;1.13;;;;;;;19.19;86.92;96755.72;4143085;28;20669;-81
2023/08/03 01:06:45;;;;;;;4.40;1.37;;;;;;;19.13;87.86;96751.19;4131234;28;20932;-81
2023/08/03 01:08:48;;;;;;;3.57;1.10;;;;;;;19.12;87.92;96760.09;4144776;28;20632;-79
2023/08/03 01:10:52;;;;;;;4.07;1.37;;;;;;;19.07;88.38;96751.94;4152025;28;20635;-81
2023/08/03 01:12:57;;;;;;;4.87;1.30;;;;;;;19.01;89.05;96760.59;4158593;28;20644;-83
2023/08/03 01:15:00;;;;;;;5.33;1.67;;;;;;;18.97;89.34;96756.69;4144747;28;20647;-82
2023/08/03 01:17:04;;;;;;;3.87;1.43;;;;;;;18.91;89.12;96750.34;4124183;28;20645;-82
2023/08/03 01:19:08;;;;;;;4.77;1.40;;;;;;;18.89;91.19;96743.59;4154894;28;20711;-82
2023/08/03 01:21:12;;;;;;;3.80;1.57;;;;;;;18.87;90.13;96753.53;4125574;28;20628;-83
2023/08/03 01:23:17;;;;;;;4.67;1.70;;;;;;;18.83;89.83;96759.38;4124750;28;20636;-78
2023/08/03 01:25:20;;;;;;;4.50;1.40;;;;;;;18.82;91.16;96765.66;4155302;28;20658;-82
2023/08/03 01:27:23;;;;;;;5.80;1.60;;;;;;;18.78;91.77;96765.25;4125413;28;20642;-82
2023/08/03 01:29:26;;;;;;;10.40;1.63;;;;;;;18.77;91.07;96762.78;4141686;28;20731;-81
2023/08/03 01:31:29;;;;;;;3.93;1.60;;;;;;;18.75;90.55;96762.97;4121050;28;20769;-82
2023/08/03 01:33:33;;;;;;;4.20;1.40;;;;;;;18.71;91.19;96756.41;4153636;28;21234;-78
2023/08/03 01:35:36;;;;;;;3.97;1.47;;;;;;;18.74;90.57;96763.16;4140754;28;20691;-81
2023/08/03 01:37:39;;;;;;;5.40;1.30;;;;;;;18.74;91.63;96756.03;4139761;28;20957;-80
2023/08/03 01:39:46;;;;;;;4.00;1.40;;;;;;;18.73;91.63;96766.78;4157470;28;20635;-80
2023/08/03 01:41:49;;;;;;;4.33;1.93;;;;;;;18.74;90.62;96766.59;4157236;28;20745;-82
2023/08/03 01:44:21;;;;;;;4.13;1.50;;;;;;;18.70;90.79;96765.38;4143414;28;20652;-81
2023/08/03 01:46:24;;;;;;;5.30;1.43;;;;;;;18.69;90.00;96758.44;4137710;28;20728;-82
2023/08/03 01:48:27;;;;;;;4.67;1.70;;;;;;;18.69;90.84;96763.72;4140710;28;20666;-82
2023/08/03 01:50:31;;;;;;;3.10;1.63;;;;;;;18.64;90.20;96760.81;4153838;28;20700;-79
2023/08/03 01:52:34;;;;;;;4.70;1.30;;;;;;;18.65;90.73;96765.09;4140524;28;20729;-80
2023/08/03 01:54:37;;;;;;;5.60;1.60;;;;;;;18.67;90.51;96768.38;4137867;28;21499;-82
2023/08/03 01:56:40;;;;;;;4.57;1.77;;;;;;;18.67;90.78;96767.53;4157603;28;20656;-82
2023/08/03 01:58:43;;;;;;;3.63;1.60;;;;;;;18.63;89.63;96756.53;4120445;28;20637;-81
2023/08/03 02:00:46;;;;;;;6.87;1.33;;;;;;;18.64;89.76;96766.09;4134288;28;20632;-80
2023/08/03 02:02:51;;;;;;;5.37;1.50;;;;;;;18.61;90.04;96765.63;4139367;28;20639;-79
2023/08/03 02:04:59;;;;;;;6.10;1.50;;;;;;;18.64;90.21;96775.84;4136412;28;20732;-82
2023/08/03 02:07:10;;;;;;;4.73;1.50;;;;;;;18.65;89.61;96766.91;4145742;28;20630;-80
2023/08/03 02:09:13;;;;;;;2.73;1.40;;;;;;;18.60;89.35;96767.47;4133024;28;21075;-81
2023/08/03 02:11:16;;;;;;;4.43;1.40;;;;;;;18.58;87.65;96774.78;4129484;28;20750;-82
2023/08/03 02:13:20;;;;;;;2.80;1.30;;;;;;;18.61;88.50;96777.03;4139082;28;20633;-83
2023/08/03 02:15:24;;;;;;;3.93;2.07;;;;;;;18.62;88.41;96776.03;4134946;28;20624;-83
2023/08/03 02:17:28;;;;;;;4.43;1.17;;;;;;;18.63;88.39;96780.31;4127262;28;20699;-82
2023/08/03 02:19:31;;;;;;;5.63;1.87;;;;;;;18.63;88.80;96782.13;4156602;28;21182;-82
2023/08/03 02:21:34;;;;;;;6.33;1.70;;;;;;;18.60;87.42;96779.88;4137282;28;20637;-82
2023/08/03 02:23:36;;;;;;;5.70;1.60;;;;;;;18.56;87.24;96773.31;4123029;28;21006;-82
2023/08/03 02:25:39;;;;;;;4.90;1.40;;;;;;;18.55;86.62;96775.16;4152341;28;20730;-81
2023/08/03 02:27:42;;;;;;;2.10;1.20;;;;;;;18.54;88.07;96776.13;4137160;28;20753;-82
2023/08/03 02:29:46;;;;;;;5.03;2.00;;;;;;;18.53;86.80;96779.78;4137889;28;21023;-83
2023/08/03 02:31:49;;;;;;;3.57;1.70;;;;;;;18.54;87.04;96786.69;4139641;28;20672;-82
2023/08/03 02:33:53;;;;;;;5.50;1.97;;;;;;;18.55;86.55;96779.59;4140516;28;20656;-82
2023/08/03 02:36:04;;;;;;;4.97;2.20;;;;;;;18.47;86.79;96783.16;4140500;28;20634;-83
2023/08/03 02:38:08;;;;;;;4.30;1.20;;;;;;;18.47;87.66;96785.78;4138919;28;21054;-82
2023/08/03 02:40:11;;;;;;;2.90;1.10;;;;;;;18.47;87.06;96791.06;4137651;28;21147;-80
2023/08/03 02:42:16;;;;;;;4.17;1.37;;;;;;;18.46;86.69;96792.09;4138627;28;21436;-82
2023/08/03 02:44:21;;;;;;;5.40;1.30;;;;;;;18.46;86.26;96794.75;4149156;28;20654;-82
2023/08/03 02:46:26;;;;;;;2.90;1.07;;;;;;;18.52;86.51;96795.81;4139202;28;20663;-83
2023/08/03 02:48:29;;;;;;;3.23;1.43;;;;;;;18.54;85.24;96804.38;4140070;28;20704;-82
2023/08/03 02:50:35;;;;;;;4.53;1.27;;;;;;;18.58;85.96;96808.28;4132465;28;20680;-80
2023/08/03 02:52:43;;;;;;;3.80;1.20;;;;;;;18.58;85.73;96803.00;4120245;28;21197;-82
2023/08/03 02:54:47;;;;;;;3.20;1.10;;;;;;;18.55;86.41;96806.00;4150621;28;20639;-84
2023/08/03 02:56:52;;;;;;;2.43;1.03;;;;;;;18.55;85.56;96803.34;4133883;28;20625;-78
2023/08/03 02:58:56;;;;;;;7.43;1.70;;;;;;;18.58;85.95;96803.81;4120656;28;21203;-82
2023/08/03 03:01:09;;;;;;;2.90;1.00;;;;;;;18.65;85.26;96811.81;4122539;28;20633;-84
2023/08/03 03:03:13;;;;;;;2.93;1.30;;;;;;;18.69;85.12;96827.13;4133110;28;20636;-82
2023/08/03 03:05:16;;;;;;;4.30;1.40;;;;;;;18.69;85.52;96821.84;4146085;28;20659;-81
2023/08/03 03:07:23;;;;;;;5.97;1.13;;;;;;;18.71;85.24;96821.66;4122156;28;20661;-83
2023/08/03 03:09:30;;;;;;;3.10;1.20;;;;;;;18.69;85.81;96810.47;4121473;28;20686;-80
2023/08/03 03:11:35;;;;;;;4.00;1.10;;;;;;;18.66;84.96;96819.56;4136772;28;20639;-84
2023/08/03 03:13:38;;;;;;;4.73;1.10;;;;;;;18.68;84.81;96827.31;4119194;28;20679;-82
2023/08/03 03:15:42;;;;;;;4.23;1.10;;;;;;;18.64;84.43;96821.59;4129282;28;21200;-83
2023/08/03 03:17:46;;;;;;;3.47;0.90;;;;;;;18.67;85.48;96825.66;4138243;28;20671;-73
2023/08/03 03:19:50;;;;;;;2.10;1.20;;;;;;;18.68;84.76;96825.47;4133592;28;21050;-75
2023/08/03 03:21:54;;;;;;;3.57;1.27;;;;;;;18.72;84.61;96836.47;4150353;28;20636;-73
2023/08/03 03:23:57;;;;;;;2.57;1.10;;;;;;;18.75;84.35;96836.94;4142649;28;20701;-75
2023/08/03 03:26:00;;;;;;;6.13;1.03;;;;;;;18.74;84.18;96851.16;4132404;28;20651;-74
2023/08/03 03:28:05;;;;;;;2.50;1.10;;;;;;;18.76;84.56;96851.78;4127394;28;20651;-74
2023/08/03 03:30:12;;;;;;;5.90;1.57;;;;;;;18.79;84.75;96842.66;4115513;28;20633;-73
2023/08/03 03:32:15;;;;;;;2.47;0.90;;;;;;;18.81;84.74;96852.06;4151237;28;20627;-76
2023/08/03 03:34:18;;;;;;;4.57;0.93;;;;;;;18.81;86.17;96856.50;4138619;28;20639;-74
2023/08/03 03:36:24;;;;;;;3.00;1.20;;;;;;;18.81;84.55;96854.72;4138328;28;21701;-75
2023/08/03 03:38:26;;;;;;;5.30;1.10;;;;;;;18.83;84.56;96854.53;4138161;28;20641;-74
2023/08/03 03:40:31;;;;;;;4.53;0.97;;;;;;;18.84;85.25;96861.44;4146115;28;20639;-76
2023/08/03 03:42:35;;;;;;;4.23;1.77;;;;;;;18.87;86.30;96866.34;4134812;28;20637;-75
2023/08/03 03:44:38;;;;;;;2.53;1.10;;;;;;;18.86;86.37;96854.97;4133791;28;20656;-74
2023/08/03 03:46:42;;;;;;;3.50;1.83;;;;;;;18.78;85.80;96864.81;4134212;28;20648;-74
2023/08/03 03:48:45;;;;;;;3.83;1.23;;;;;;;18.68;85.61;96857.19;4115411;28;20686;-74
2023/08/03 03:50:48;;;;;;;2.10;1.00;;;;;;;18.66;86.02;96863.66;4133006;28;21342;-74
2023/08/03 03:52:52;;;;;;;5.57;1.53;;;;;;;18.67;85.45;96867.91;4140679;28;20625;-73
2023/08/03 03:54:55;;;;;;;6.37;1.20;;;;;;;18.63;86.05;96872.75;4137415;28;20694;-75
2023/08/03 03:57:00;;;;;;;3.87;1.20;;;;;;;18.61;86.40;96864.22;4128134;28;21025;-74
2023/08/03 03:59:07;;;;;;;3.90;2.03;;;;;;;18.60;85.50;96872.31;4140327;28;21048;-75
2023/08/03 04:01:12;;;;;;;6.20;1.90;;;;;;;18.55;86.77;96866.75;4135293;28;21211;-74
2023/08/03 04:03:17;;;;;;;4.90;1.70;;;;;;;18.52;86.14;96872.41;4121679;28;20641;-74
2023/08/03 04:05:19;;;;;;;2.17;0.90;;;;;;;18.54;85.96;96875.69;4124335;28;20651;-76
2023/08/03 04:07:22;;;;;;;2.80;1.13;;;;;;;18.54;87.09;96873.88;4135165;28;21371;-75
2023/08/03 04:09:27;;;;;;;3.90;1.20;;;;;;;18.52;86.92;96873.25;4130624;28;20723;-74
2023/08/03 04:11:29;;;;;;;6.07;1.77;;;;;;;18.54;85.67;96867.78;4148880;28;20635;-74
2023/08/03 04:13:34;;;;;;;3.40;1.17;;;;;;;18.54;86.78;96881.78;4146612;28;20706;-75
2023/08/03 04:15:37;;;;;;;6.10;1.77;;;;;;;18.48;85.59;96887.81;4129260;28;24766;-76
2023/08/03 04:17:40;;;;;;;3.77;1.30;;;;;;;18.45;85.30;96882.88;4136256;28;20677;-74
2023/08/03 04:19:48;;;;;;;3.70;1.60;;;;;;;18.45;86.67;96890.00;4137444;28;20644;-74
2023/08/03 04:21:51;;;;;;;4.33;1.10;;;;;;;18.48;86.57;96887.81;4152924;28;20723;-74
2023/08/03 04:23:53;;;;;;;5.70;1.60;;;;;;;18.51;86.43;96894.53;4146625;28;20631;-75
2023/08/03 04:25:59;;;;;;;2.80;1.23;;;;;;;18.54;86.55;96902.91;4132075;28;21215;-75
2023/08/03 04:28:02;;;;;;;2.73;1.30;;;;;;;18.54;86.37;96902.09;4120039;28;21095;-76
2023/08/03 04:30:11;;;;;;;3.10;1.20;;;;;;;18.55;87.27;96903.72;4132860;28;20631;-75
2023/08/03 04:32:16;;;;;;;6.40;1.60;;;;;;;18.56;87.13;96913.31;4140926;28;20637;-74
2023/08/03 04:34:21;;;;;;;9.10;3.73;;;;;;;18.55;86.74;96920.41;4152887;28;21431;-74
2023/08/03 04:36:26;;;;;;;7.43;1.30;;;;;;;18.60;86.09;96923.31;4148711;28;20647;-76
2023/08/03 04:38:28;;;;;;;6.23;1.53;;;;;;;18.62;86.31;96926.59;4134738;28;20640;-77
2023/08/03 04:41:00;;;;;;;4.10;1.17;;;;;;;18.63;87.18;96936.16;4140831;28;21070;-76
2023/08/03 04:43:10;;;;;;;6.77;1.80;;;;;;;18.64;85.93;96937.81;4124550;28;20736;-74
2023/08/03 04:45:13;;;;;;;4.43;1.30;;;;;;;18.64;85.74;96932.53;4124990;28;20730;-75
2023/08/03 04:47:20;;;;;;;6.27;1.23;;;;;;;18.66;86.13;96938.44;4135348;28;20709;-75
2023/08/03 04:49:25;;;;;;;3.30;1.17;;;;;;;18.67;85.80;96942.75;4137917;28;21312;-75
2023/08/03 04:51:31;;;;;;;2.93;1.23;;;;;;;18.63;85.44;96944.09;4121172;28;20624;-75
2023/08/03 04:53:35;;;;;;;2.97;1.63;;;;;;;18.56;85.92;96943.16;4141774;28;20792;-75
2023/08/03 04:55:40;;;;;;;3.13;1.00;;;;;;;18.58;85.94;96940.34;4144086;28;21218;-74
2023/08/03 04:57:43;;;;;;;3.70;1.00;;;;;;;18.62;85.71;96947.72;4145877;28;21095;-75
2023/08/03 04:59:48;;;;;;;3.73;1.30;;;;;;;18.69;85.92;96948.66;4141161;28;20638;-74
2023/08/03 05:01:52;;;;;;;3.00;1.10;;;;;;;18.75;84.33;96958.50;4137234;28;21203;-76
2023/08/03 05:03:56;;;;;;;4.40;2.10;;;;;;;18.88;85.28;96958.66;4128679;28;20673;-75
2023/08/03 05:05:59;;;;;;;3.00;1.30;;;;;;;19.02;85.04;96957.88;4146004;28;21080;-75
2023/08/03 05:08:05;;;;;;;3.77;1.20;;;;;;;19.12;84.96;96953.91;4156438;28;20696;-75
2023/08/03 05:10:10;;;;;;;3.00;1.20;;;;;;;19.12;84.03;96948.63;4136029;28;20633;-74
2023/08/03 05:12:14;;;;;;;4.40;1.10;;;;;;;19.15;84.50;96944.81;4139056;28;20660;-74
2023/08/03 05:14:17;;;;;;;4.83;1.00;;;;;;;19.12;81.88;96948.63;4145302;28;21018;-75
2023/08/03 05:16:24;;;;;;;6.87;1.60;;;;;;;19.18;82.65;96950.53;4157341;28;20630;-74
2023/08/03 05:18:28;;;;;;;5.97;1.53;;;;;;;19.19;82.88;96954.00;4136599;28;20621;-75
2023/08/03 05:20:30;;;;;;;7.03;1.30;;;;;;;19.09;84.34;96946.38;4137949;28;20639;-75
2023/08/03 05:22:33;;;;;;;2.73;1.00;;;;;;;19.08;84.19;96947.38;4141008;28;21266;-74
2023/08/03 05:24:36;;;;;;;3.27;1.23;;;;;;;19.07;83.21;96958.13;4142494;28;20636;-74
2023/08/03 05:26:39;;;;;;;3.43;1.00;;;;;;;19.07;83.83;96958.94;4137210;28;20638;-75
2023/08/03 05:28:42;;;;;;;3.10;0.90;;;;;;;19.04;83.10;96966.44;4150734;28;20670;-75
2023/08/03 05:30:46;;;;;;;3.50;0.90;;;;;;;18.96;84.20;96961.22;4143959;28;20627;-75
2023/08/03 05:32:50;;;;;;;4.00;0.90;;;;;;;18.86;82.94;96965.94;4131916;28;20647;-76
2023/08/03 05:34:53;;;;;;;3.37;1.27;;;;;;;18.83;82.93;96961.03;4155079;28;20638;-74
2023/08/03 05:36:56;;;;;;;2.73;1.10;;;;;;;18.79;82.67;96965.03;4129384;28;20616;-75
2023/08/03 05:38:59;;;;;;;2.83;1.60;;;;;;;18.77;82.45;96964.41;4154285;28;21316;-83
2023/08/03 05:41:05;;;;;;;3.97;1.10;;;;;;;18.76;84.04;96968.03;4145689;28;20639;-83
2023/08/03 05:43:10;;;;;;;3.70;0.80;;;;;;;18.74;83.26;96966.59;4149338;28;20674;-84
2023/08/03 05:45:15;;;;;;;2.30;0.90;;;;;;;18.75;82.65;96966.41;4135316;28;20667;-82
2023/08/03 05:47:18;;;;;;;4.30;0.80;;;;;;;18.68;83.38;96973.41;4135383;28;20636;-84
2023/08/03 05:49:25;;;;;;;5.17;1.53;;;;;;;18.62;83.28;96965.41;4149262;28;21303;-83
2023/08/03 05:51:29;;;;;;;3.80;1.00;;;;;;;18.58;82.55;96970.25;4154951;28;21152;-83
2023/08/03 05:53:33;;;;;;;3.80;1.20;;;;;;;18.56;83.28;96974.06;4152795;28;20687;-83
2023/08/03 05:55:36;;;;;;;3.60;1.10;;;;;;;18.52;84.48;96978.88;4132453;28;20727;-83
2023/08/03 05:57:39;;;;;;;1.83;0.50;;;;;;;18.47;84.69;96969.84;4133361;28;20629;-84
2023/08/03 05:59:42;;;;;;;2.27;0.80;;;;;;;18.40;85.34;96973.38;4141320;28;20722;-83
2023/08/03 06:01:46;;;;;;;3.20;1.37;;;;;;;18.38;84.30;96964.84;4151678;28;20633;-84
2023/08/03 06:03:52;;;;;;;2.13;0.87;;;;;;;18.37;84.42;96976.38;4140371;28;20667;-84
2023/08/03 06:05:58;;;;;;;1.70;0.60;;;;;;;18.35;85.26;96983.69;4156551;28;20646;-84
2023/08/03 06:08:00;;;;;;;1.80;0.60;;;;;;;18.32;85.78;96981.41;4155891;28;20725;-84
2023/08/03 06:10:05;;;;;;;2.27;0.90;;;;;;;18.26;85.02;96982.13;4159296;28;20627;-84
2023/08/03 06:12:14;;;;;;;1.80;0.80;;;;;;;18.21;85.71;96997.69;4140720;28;20631;-84
2023/08/03 06:14:17;;;;;;;3.03;0.70;;;;;;;18.15;86.18;96993.09;4155854;28;20638;-83
2023/08/03 06:16:22;;;;;;;2.03;0.60;;;;;;;18.14;85.56;96994.91;4157014;28;21077;-78
2023/08/03 06:18:25;;;;;;;2.67;0.60;;;;;;;18.12;85.74;96996.06;4156850;28;21266;-82
2023/08/03 06:20:29;;;;;;;3.20;0.60;;;;;;;18.09;87.12;97004.34;4159886;28;20633;-82
2023/08/03 06:22:33;;;;;;;4.63;0.87;;;;;;;18.10;87.28;97009.44;4143303;28;20647;-82
2023/08/03 06:24:37;;;;;;;2.17;0.60;;;;;;;18.06;87.80;97010.78;4159417;28;20623;-81
2023/08/03 06:26:40;;;;;;;1.93;0.80;;;;;;;17.93;91.42;97023.72;4153395;28;20650;-82
2023/08/03 06:28:43;;;;;;;1.77;0.53;;;;;;;17.83;92.79;97027.63;4137635;28;20754;-80
2023/08/03 06:30:47;;;;;;;2.90;1.03;;;;;;;17.81;94.79;97044.63;4139904;28;21262;-82
2023/08/03 06:32:51;;;;;;;1.63;0.50;;;;;;;17.79;94.79;97050.06;4141408;28;20719;-80
2023/08/03 06:34:55;;;;;;;1.77;0.57;;;;;;;17.83;95.66;97040.81;4143750;28;20639;-82
2023/08/03 06:37:00;;;;;;;1.20;0.50;;;;;;;17.81;96.08;97039.34;4138336;28;20631;-81
2023/08/03 06:39:04;;;;;;;1.77;0.60;;;;;;;17.74;96.27;97047.13;4141300;28;20645;-82
2023/08/03 06:41:07;;;;;;;2.00;0.70;;;;;;;17.76;96.20;97041.69;4141541;28;20634;-81
2023/08/03 06:43:11;;;;;;;2.57;0.53;;;;;;;17.81;96.63;97045.44;4155376;28;20629;-80
2023/08/03 06:45:15;;;;;;;1.87;0.77;;;;;;;17.88;96.83;97061.41;4153842;28;20626;-81
2023/08/03 06:47:18;;;;;;;1.90;0.90;;;;;;;18.00;97.43;97066.09;4158158;28;20613;-82
2023/08/03 06:49:20;;;;;;;2.40;0.70;;;;;;;18.10;97.19;97064.88;4144509;28;20733;-79
2023/08/03 06:51:23;;;;;;;2.03;0.70;;;;;;;18.32;96.69;97064.06;4155828;28;20718;-81
2023/08/03 06:53:26;;;;;;;2.80;0.60;;;;;;;19.06;96.21;97072.81;4132168;28;20625;-83
2023/08/03 06:55:31;;;;;;;3.93;0.63;;;;;;;19.51;92.47;97071.59;4153912;28;20654;-80
2023/08/03 06:57:34;;;;;;;1.80;0.60;;;;;;;19.97;90.22;97062.41;4125159;28;20627;-82
2023/08/03 06:59:37;;;;;;;1.60;0.60;;;;;;;20.37;88.21;97075.84;4144508;28;21031;-82
2023/08/03 07:01:40;;;;;;;2.30;1.00;;;;;;;20.95;90.63;97076.38;4135349;28;21270;-82
2023/08/03 07:03:43;;;;;;;5.53;0.60;;;;;;;21.31;87.71;97077.84;4154677;28;20671;-82
2023/08/03 07:05:46;;;;;;;2.37;0.57;;;;;;;21.49;84.01;97063.06;4153908;28;21201;-82
2023/08/03 07:07:49;;;;;;;1.80;0.50;;;;;;;21.43;83.42;97074.44;4133412;28;20693;-83
2023/08/03 07:09:52;;;;;;;1.70;0.70;;;;;;;21.53;84.89;97072.31;4155058;28;21266;-82
2023/08/03 07:11:57;;;;;;;2.20;0.63;;;;;;;21.54;83.34;97079.22;4143230;28;20722;-80
2023/08/03 07:14:00;;;;;;;2.63;0.60;;;;;;;21.52;84.63;97080.47;4153015;28;20624;-83
2023/08/03 07:16:07;;;;;;;1.67;0.70;;;;;;;21.62;84.20;97087.03;4158292;28;20665;-81
2023/08/03 07:18:11;;;;;;;1.27;0.50;;;;;;;21.66;83.25;97082.97;4158446;28;20640;-81
2023/08/03 07:20:16;;;;;;;3.90;0.70;;;;;;;21.64;82.20;97082.34;4144081;28;21228;-81
2023/08/03 07:22:19;;;;;;;3.27;0.80;;;;;;;21.45;81.47;97079.56;4156199;28;20729;-82
2023/08/03 07:24:23;;;;;;;1.50;0.70;;;;;;;21.37;83.59;97085.03;4146909;28;21058;-82
2023/08/03 07:26:26;;;;;;;4.30;0.90;;;;;;;21.32;82.29;97079.50;4156037;28;20618;-81
2023/08/03 07:28:31;;;;;;;2.30;0.73;;;;;;;21.21;81.75;97084.53;4134395;28;20993;-82
2023/08/03 07:30:36;;;;;;;2.20;0.70;;;;;;;21.06;80.46;97081.16;4151193;28;20621;-82
2023/08/03 07:32:39;;;;;;;1.40;0.60;;;;;;;21.05;79.80;97076.84;4160255;28;20619;-82
2023/08/03 07:34:43;;;;;;;2.47;1.10;;;;;;;20.95;78.08;97093.13;4156650;28;20979;-79
2023/08/03 07:36:46;;;;;;;3.43;0.93;;;;;;;20.80;77.00;97077.50;4156222;28;21059;-82
2023/08/03 07:38:50;;;;;;;2.63;0.60;;;;;;;20.73;76.53;97077.44;4155652;28;20976;-81
2023/08/03 07:40:53;;;;;;;3.03;0.70;;;;;;;20.55;77.69;97081.53;4140696;28;20661;-80
2023/08/03 07:42:56;;;;;;;2.70;0.63;;;;;;;20.53;78.27;97089.66;4161905;28;20645;-82
2023/08/03 07:45:00;;;;;;;1.20;0.50;;;;;;;20.61;77.70;97080.75;4160388;28;20724;-80
2023/08/03 07:47:04;;;;;;;2.30;0.77;;;;;;;20.61;76.51;97078.97;4139721;28;21091;-82
2023/08/03 07:49:07;;;;;;;2.77;0.80;;;;;;;20.53;75.01;97079.06;4155821;28;20673;-80
2023/08/03 07:51:12;;;;;;;3.00;0.80;;;;;;;20.51;74.81;97081.09;4156486;28;21186;-81
2023/08/03 07:53:15;;;;;;;1.23;0.50;;;;;;;20.55;76.06;97074.41;4156951;28;20680;-80
2023/08/03 07:55:18;;;;;;;1.83;0.68;;;;;;;20.35;73.96;97081.34;4154316;28;20861;-82
2023/08/03 07:57:21;;;;;;;2.80;0.90;;;;;;;20.46;75.22;97087.97;4154887;28;20215;-80
2023/08/03 07:59:25;;;;;;;1.70;0.90;;;;;;;20.54;75.29;97083.38;4141666;28;20619;-74
2023/08/03 08:01:29;;;;;;;2.17;0.77;;;;;;;20.52;74.29;97092.50;4157184;28;20644;-73
2023/08/03 08:03:31;;;;;;;2.60;1.00;;;;;;;20.52;73.80;97085.41;4156366;28;20647;-73
2023/08/03 08:05:35;;;;;;;2.80;0.70;;;;;;;20.62;75.73;97077.94;4127410;28;20636;-73
2023/08/03 08:07:38;;;;;;;2.23;0.63;;;;;;;20.75;72.86;97083.38;4154431;28;21050;-74
2023/08/03 08:09:41;;;;;;;1.80;0.50;;;;;;;20.99;73.57;97083.78;4139628;28;20742;-74
2023/08/03 08:11:44;;;;;;;5.80;0.77;;;;;;;21.16;73.29;97093.06;4158185;28;20644;-74
2023/08/03 08:13:48;;;;;;;1.77;0.70;;;;;;;21.42;72.93;97088.75;4152418;28;21198;-73
2023/08/03 08:15:50;;;;;;;2.37;0.70;;;;;;;21.57;71.86;97089.44;4143916;28;20619;-73
2023/08/03 08:17:55;;;;;;;2.10;1.03;;;;;;;21.54;70.42;97089.03;4152018;28;20649;-73
2023/08/03 08:19:58;;;;;;;3.17;0.80;;;;;;;21.54;70.83;97092.50;4136036;28;21212;-73
2023/08/03 08:22:00;;;;;;;1.50;0.60;;;;;;;21.52;71.53;97083.91;4136983;28;20632;-73
2023/08/03 08:24:17;;;;;;;4.30;0.90;;;;;;;21.59;72.40;97086.59;4152174;28;20678;-73
2023/08/03 08:26:21;;;;;;;1.47;0.60;;;;;;;21.76;72.65;97096.69;4138796;28;21021;-73
2023/08/03 08:28:24;;;;;;;1.63;0.60;;;;;;;21.93;73.88;97090.03;4156049;28;20637;-73
2023/08/03 08:30:27;;;;;;;1.40;0.80;;;;;;;21.88;70.96;97103.09;4136328;28;20678;-73
2023/08/03 08:32:30;;;;;;;2.53;0.60;;;;;;;21.92;71.83;97093.69;4154455;28;20642;-73
2023/08/03 08:34:34;;;;;;;1.47;0.60;;;;;;;22.01;70.73;97092.50;4135577;28;20785;-73
2023/08/03 08:36:37;;;;;;;1.77;0.80;;;;;;;21.95;70.54;97090.63;4137452;28;20642;-75
2023/08/03 08:38:40;;;;;;;2.90;0.70;;;;;;;22.00;71.42;97083.72;4157532;28;20701;-73
2023/08/03 08:40:44;;;;;;;2.40;0.80;;;;;;;22.09;71.55;97081.72;4155463;28;20670;-75
2023/08/03 08:42:52;;;;;;;1.60;0.70;;;;;;;22.19;70.62;97080.31;4134340;28;21315;-74
2023/08/03 08:44:55;;;;;;;1.97;0.83;;;;;;;22.24;69.73;97081.34;4140283;28;20816;-74
2023/08/03 08:46:58;;;;;;;1.50;0.60;;;;;;;22.20;69.69;97083.78;4142541;28;20730;-73
2023/08/03 08:49:01;;;;;;;2.33;0.77;;;;;;;22.35;70.42;97094.06;4153529;28;20673;-73
2023/08/03 08:51:06;;;;;;;1.67;0.60;;;;;;;22.45;69.66;97083.84;4155748;28;20741;-73
2023/08/03 08:53:09;;;;;;;1.80;0.60;;;;;;;22.49;68.66;97090.41;4156075;28;20633;-74
2023/08/03 08:55:17;;;;;;;3.87;1.00;;;;;;;22.45;68.62;97099.00;4141902;28;21406;-74
2023/08/03 08:57:40;;;;;;;2.03;0.60;;;;;;;22.34;69.14;97096.91;4147477;28;20634;-73
2023/08/03 08:59:59;;;;;;;1.80;0.60;;;;;;;22.26;69.16;97095.25;4137466;28;21088;-73
2023/08/03 09:02:03;;;;;;;2.93;0.63;;;;;;;22.34;68.71;97105.72;4154200;28;20628;-73
2023/08/03 09:04:06;;;;;;;1.47;0.67;;;;;;;22.38;68.87;97103.47;4133151;28;20661;-74
2023/08/03 09:06:13;;;;;;;2.00;1.10;;;;;;;22.37;68.61;97110.63;4154365;28;21064;-73
2023/08/03 09:08:21;;;;;;;3.33;0.87;;;;;;;22.33;68.07;97111.25;4156970;28;20642;-82
2023/08/03 09:10:23;;;;;;;3.20;1.17;;;;;;;22.33;68.50;97112.03;4128942;28;21337;-82
2023/08/03 09:12:27;;;;;;;2.80;0.87;;;;;;;22.03;69.33;97109.06;4134639;28;20624;-81
2023/08/03 09:14:31;;;;;;;1.83;0.50;;;;;;;21.90;69.44;97114.31;4155868;28;20669;-78
2023/08/03 09:16:34;;;;;;;1.60;0.50;;;;;;;21.90;69.57;97117.78;4154975;28;20635;-82
2023/08/03 09:18:44;;;;;;;3.27;1.07;;;;;;;21.91;68.53;97115.97;4141582;28;21288;-81
2023/08/03 09:20:47;;;;;;;2.33;0.70;;;;;;;21.75;69.16;97112.84;4146371;28;20657;-81
2023/08/03 09:22:52;;;;;;;2.27;1.13;;;;;;;21.73;70.64;97112.22;4157365;28;20622;-82
2023/08/03 09:25:02;;;;;;;3.20;0.67;;;;;;;21.72;69.53;97132.63;4156004;28;20627;-82
2023/08/03 09:27:06;;;;;;;3.10;0.80;;;;;;;21.69;69.59;97127.69;4139643;28;21218;-82
2023/08/03 09:29:13;;;;;;;1.87;0.53;;;;;;;21.49;70.42;97125.97;4142123;28;20696;-82
2023/08/03 09:31:26;;;;;;;2.07;0.70;;;;;;;21.52;70.16;97123.72;4157877;28;20663;-82
2023/08/03 09:33:32;;;;;;;1.33;0.50;;;;;;;21.61;70.45;97135.84;4139188;28;20645;-81
2023/08/03 09:35:35;;;;;;;2.57;0.77;;;;;;;21.60;71.02;97131.53;4155390;28;21150;-82
2023/08/03 09:37:41;;;;;;;1.77;0.70;;;;;;;21.55;70.58;97131.31;4158684;28;21036;-82
2023/08/03 09:39:55;;;;;;;3.43;0.87;;;;;;;21.56;70.14;97130.31;4134329;28;20689;-81
2023/08/03 09:41:58;;;;;;;2.97;0.87;;;;;;;21.41;71.02;97129.56;4153908;28;21413;-82
2023/08/03 09:44:01;;;;;;;1.43;0.60;;;;;;;21.42;71.27;97130.38;4144153;28;21021;-82
2023/08/03 09:46:05;;;;;;;1.70;0.60;;;;;;;21.48;70.45;97140.25;4127421;28;21170;-82